world map with LBD marked

LBD - Airport

This information may not be accurate or current and is not valid for navigation or flight planning. No warranty of fitness for any purpose is made or implied.

flag of Tajikistan

Donate via PayPal

Additional information is available on the NEW Great Circle Mapper

Location
City:  Khujand, Sughd, Tajikistan
Near (Alt.):Khudzhand
Name:Khujand Airport
ICAO / IATA:UTDL / LBD

Details
Type:Airport (Aerodrome, Airfield)
Use:Public/Civil
Latitude:40°13'N (40.215)
Longitude:69°42'E (69.697)
Elevation:1450 ft (442 m)
Runways:1
Longest:10499 × 164 ft (3200 × 50 m)

Time
Timezone:UTC+5 (DST+7)
Local Time:

Weather
METAR:UTDL  102330Z 24001MPS 1700 R08/1700N BR BKN086 01/00 Q1022 R08/CLRD70 NOSIG RMK QFE727/0970
TAF:UTDL  (expired)

Related Locations
Nearby:
Farthest:NEMO: 11557 mi / 18599 km
Pacific Ocean [Oceanic Pole of Inaccessibility (Point Nemo)]

Find:

   beyond  
but within

Other Information
Maps:
Sources:

  


 


Great Circle Mapper   Great Circle Mapper
Great Circle Mapper FAQ   Great Circle Mapper FAQ
  Karl's Home Page
KLSē   KLSē Home
   GC on Facebook
Airlines of the World   Airlines of the World
Donate via PayPal


Copyright © 2004-2018, Karl L. Swartz. All rights reserved.
All trademarks mentioned herein belong to their respective owners.

Please see credits for attribution and copyright information.

Karl Swartz <karl@kls2.com>
  Powered by FreeBSD
Valid HTML 4.01!
Labeled with ICRA
hCard Microformat
Geo Microformat